• Join FlightAware (Why Join?)
  • Login
  • US Flag 
01:48PM EDT


 

Airport Tracker/Info


-or-


 

Live Flight TrackerFlight Track Log ✈ N779NC ✈ 02-Jul-2013 ✈ KATL - KBHM

Flight Track Log - Related Links

Times and Time Zones

All times are in EDT time to prevent confusion due to time zone crossing. See the N779NC flight status page for this flight to view local times or setup timezone preferences in your user account.

Time Position Orientation Groundspeed Altitude Reporting Facility
EDT Latitude Longitude Course Direction KTS MPH feet Rate Location/Type
05:59PM 33.6667 -84.3500 280° West 221 254 2,600  Level Atlanta TRACON
06:00PM 33.7000 -84.2833 59° Northeast 284 327 4,900 2,400 Climbing Atlanta TRACON
06:01PM 33.6696 -84.7475 277° West  Level FlightAware Approximate
06:01PM 33.7667 -84.2667 12° North 280 322 7,200  Level Atlanta TRACON
06:02PM 33.6804 -84.8541 277° West  Level FlightAware Approximate
06:02PM 33.8333 -84.3333 320° Northwest 293 337 9,500  Level Atlanta TRACON
06:03PM 33.6927 -84.9488 280° West  Level FlightAware Approximate
06:04PM 33.7079 -85.0546 280° West  Level FlightAware Approximate
06:04PM 33.8139 -84.5639 264° West 314 361 10,900  Level Atlanta Center
06:05PM 33.8072 -84.6764 266° West 341 392 13,400 2,220 Climbing Atlanta Center
06:06PM 33.7858 -84.7736 255° West 346 398 15,400 1,920 Climbing Atlanta Center
06:07PM 33.7536 -84.8983 253° West 349 402 17,300 1,860 Climbing Atlanta Center
06:08PM 33.7258 -85.0128 254° West 361 415 19,200 1,680 Climbing Atlanta Center
06:09PM 33.6997 -85.1300 255° West 361 415 20,700 1,320 Climbing Atlanta Center
06:10PM 33.6736 -85.2494 255° West 361 415 21,900 240 Climbing Atlanta Center
06:11PM 33.6556 -85.3789 261° West 387 445 21,200 -1,800 Descending Atlanta Center
06:12PM 33.6500 -85.4936 267° West 387 445 18,300 -2,760 Descending Atlanta Center
06:13PM 33.6442 -85.6208 267° West 387 445 15,700 -2,700 Descending Atlanta Center
06:14PM 33.6219 -85.7353 257° West 372 428 13,000 -1,980 Descending Atlanta Center
06:15PM 33.5972 -85.8469 255° West 357 411 11,800 -1,080 Descending Atlanta Center
06:16PM 33.5894 -85.9489 265° West 311 358 11,100 -420 Descending Atlanta Center
06:17PM 33.5669 -86.0483 255° West 277 319 11,000 -60 Descending Atlanta Center
06:18PM 33.5447 -86.1375 253° West 292 336 11,000  Level Atlanta Center
06:19PM 33.5264 -86.2292 257° West 289 333 11,000 -1,140 Level Atlanta Center
06:20PM 33.5497 -86.3219 287° West 296 341 8,800 -1,860 Descending Atlanta Center
06:21PM 33.5689 -86.4172 284° West 295 339 7,300 -1,560 Descending Atlanta Center
06:22PM 33.6069 -86.4906 302° West 289 333 5,700 -1,440 Descending Atlanta Center
06:23PM 33.6472 -86.5667 302° West 282 325 4,400 -1,440 Descending Atlanta Center
06:24PM 33.6356 -86.6336 258° West 214 246 2,900 -1,320 Descending Atlanta Center
06:25PM 33.6031 -86.6850 233° Southwest 196 226 1,800 -1,020 Descending Atlanta Center
06:26PM 33.5747 -86.7342 235° Southwest 138 159 900 -900 Descending Atlanta Center
06:28PM 33.5639 -86.7523 270° West  Level Estimated
06:35PM 33.5639 -86.7523 270° West  Level Estimated